MHLC/LCE METAR and TAF weather

Enter ICAO airport designator
Station Type Date Time Source
MHLC METAR 2019/08/25 20:00 UTC NOAA

MHLC 252000Z 03009KT 9999 SCT028CB 32/25 Q1010 A2983 NOSIG


Station Type Date Time Source
MHLC Decoded METAR 2019/08/25 20:00 UTC NOAA

Station name not available
Aug 25, 2019 - 04:00 PM EDT / 2019.08.25 2000 UTC
Wind: from the NNE (030 degrees) at 10 MPH (9 KT):0
Visibility: greater than 7 mile(s):0
Sky conditions: partly cloudy
Weather: Cumulonimbus clouds observed
Temperature: 89 F (32 C)
Heat index: 100.6 F (38.1 C):1
Dew Point: 77 F (25 C)
Relative Humidity: 66%
Pressure (altimeter): 29.83 in. Hg (1010 hPa)
ob: MHLC 252000Z 03009KT 9999 SCT028CB 32/25 Q1010 A2983 NOSIG
cycle: 20

Station Type Date Time Source
MHLC TAF 2019/08/25 18:17 UTC NOAA

TAF MHLC 251600Z 2518/2618 04012KT 9999 SCT024TCU TX33/2520Z TN24/2612Z
TEMPO 2522/2602 6000 TSRA SCT022CB SCT080
BECMG 2602/2604 15003KT 9999 NSW FEW025TCU SCT090

Example: see airport list